sensor_id;sensor_type;location;lat;lon;timestamp;pressure;altitude;pressure_sealevel;temperature;humidity
57572;BME280;44459;43.522;24.470;2023-01-09T00:01:55;100674.19;;;0.39;100.00
57572;BME280;44459;43.522;24.470;2023-01-09T00:04:21;100673.47;;;0.41;100.00
57572;BME280;44459;43.522;24.470;2023-01-09T00:06:46;100676.25;;;0.44;100.00
57572;BME280;44459;43.522;24.470;2023-01-09T00:09:19;100681.75;;;0.50;100.00
57572;BME280;44459;43.522;24.470;2023-01-09T00:11:45;100679.47;;;0.57;100.00
57572;BME280;44459;43.522;24.470;2023-01-09T00:14:10;100676.66;;;0.52;100.00
57572;BME280;44459;43.522;24.470;2023-01-09T00:16:36;100677.88;;;0.59;100.00
57572;BME280;44459;43.522;24.470;2023-01-09T00:19:01;100676.47;;;0.65;100.00
57572;BME280;44459;43.522;24.470;2023-01-09T00:21:27;100666.41;;;0.55;100.00
57572;BME280;44459;43.522;24.470;2023-01-09T00:23:53;100668.59;;;0.47;100.00
57572;BME280;44459;43.522;24.470;2023-01-09T00:26:19;100652.38;;;0.52;100.00
57572;BME280;44459;43.522;24.470;2023-01-09T00:28:46;100653.09;;;0.49;100.00
57572;BME280;44459;43.522;24.470;2023-01-09T00:31:12;100657.31;;;0.47;100.00
57572;BME280;44459;43.522;24.470;2023-01-09T00:33:44;100646.94;;;0.47;100.00
57572;BME280;44459;43.522;24.470;2023-01-09T00:36:10;100654.47;;;0.42;100.00
57572;BME280;44459;43.522;24.470;2023-01-09T00:38:36;100651.66;;;0.38;100.00
57572;BME280;44459;43.522;24.470;2023-01-09T00:41:03;100653.56;;;0.42;100.00
57572;BME280;44459;43.522;24.470;2023-01-09T00:43:34;100656.84;;;0.38;100.00
57572;BME280;44459;43.522;24.470;2023-01-09T00:46:03;100648.66;;;0.30;100.00
57572;BME280;44459;43.522;24.470;2023-01-09T00:48:31;100655.06;;;0.37;100.00
57572;BME280;44459;43.522;24.470;2023-01-09T00:50:58;100643.88;;;0.38;100.00
57572;BME280;44459;43.522;24.470;2023-01-09T00:53:27;100640.59;;;0.26;100.00
57572;BME280;44459;43.522;24.470;2023-01-09T00:55:55;100638.59;;;0.20;100.00
57572;BME280;44459;43.522;24.470;2023-01-09T00:58:23;100641.72;;;0.15;100.00
57572;BME280;44459;43.522;24.470;2023-01-09T01:00:48;100632.19;;;0.14;100.00
57572;BME280;44459;43.522;24.470;2023-01-09T01:03:14;100626.56;;;0.22;100.00
57572;BME280;44459;43.522;24.470;2023-01-09T01:05:39;100618.78;;;0.22;100.00
57572;BME280;44459;43.522;24.470;2023-01-09T01:08:23;100623.25;;;0.25;100.00
57572;BME280;44459;43.522;24.470;2023-01-09T01:10:48;100624.06;;;0.24;100.00
57572;BME280;44459;43.522;24.470;2023-01-09T01:13:14;100618.78;;;0.22;100.00
57572;BME280;44459;43.522;24.470;2023-01-09T01:15:42;100619.69;;;0.23;100.00
57572;BME280;44459;43.522;24.470;2023-01-09T01:18:09;100616.13;;;0.21;100.00
57572;BME280;44459;43.522;24.470;2023-01-09T01:20:35;100614.03;;;0.14;100.00
57572;BME280;44459;43.522;24.470;2023-01-09T01:23:00;100605.25;;;0.12;100.00
57572;BME280;44459;43.522;24.470;2023-01-09T01:25:26;100605.34;;;0.13;100.00
57572;BME280;44459;43.522;24.470;2023-01-09T01:27:52;100613.28;;;0.16;100.00
57572;BME280;44459;43.522;24.470;2023-01-09T01:30:18;100611.09;;;0.24;100.00
57572;BME280;44459;43.522;24.470;2023-01-09T01:32:44;100604.84;;;0.20;100.00
57572;BME280;44459;43.522;24.470;2023-01-09T01:35:10;100593.91;;;0.10;100.00
57572;BME280;44459;43.522;24.470;2023-01-09T01:37:36;100593.53;;;0.04;100.00
57572;BME280;44459;43.522;24.470;2023-01-09T01:40:03;100585.13;;;0.08;100.00
57572;BME280;44459;43.522;24.470;2023-01-09T01:42:30;100586.44;;;0.16;100.00
57572;BME280;44459;43.522;24.470;2023-01-09T01:47:34;100593.91;;;0.10;100.00
57572;BME280;44459;43.522;24.470;2023-01-09T01:50:05;100576.44;;;0.07;100.00
57572;BME280;44459;43.522;24.470;2023-01-09T01:52:33;100580.28;;;0.14;100.00
57572;BME280;44459;43.522;24.470;2023-01-09T01:55:03;100571.50;;;0.12;100.00
57572;BME280;44459;43.522;24.470;2023-01-09T01:57:29;100557.97;;;0.17;100.00
57572;BME280;44459;43.522;24.470;2023-01-09T01:59:58;100556.97;;;0.15;100.00
57572;BME280;44459;43.522;24.470;2023-01-09T02:02:29;100559.88;;;0.21;100.00
57572;BME280;44459;43.522;24.470;2023-01-09T02:04:56;100550.34;;;0.20;100.00
57572;BME280;44459;43.522;24.470;2023-01-09T02:07:23;100548.78;;;0.24;100.00
57572;BME280;44459;43.522;24.470;2023-01-09T02:09:49;100549.91;;;0.29;100.00
57572;BME280;44459;43.522;24.470;2023-01-09T02:12:20;100546.25;;;0.25;100.00
57572;BME280;44459;43.522;24.470;2023-01-09T02:15:08;100545.53;;;0.28;100.00
57572;BME280;44459;43.522;24.470;2023-01-09T02:20:34;100548.31;;;0.31;100.00
57572;BME280;44459;43.522;24.470;2023-01-09T02:26:31;100549.09;;;0.30;100.00
57572;BME280;44459;43.522;24.470;2023-01-09T02:31:39;100544.09;;;0.17;100.00
57572;BME280;44459;43.522;24.470;2023-01-09T02:39:26;100551.88;;;0.17;100.00
57572;BME280;44459;43.522;24.470;2023-01-09T02:42:03;100552.03;;;0.20;100.00
57572;BME280;44459;43.522;24.470;2023-01-09T02:44:33;100553.66;;;0.18;100.00
57572;BME280;44459;43.522;24.470;2023-01-09T02:47:34;100552.94;;;0.20;100.00
57572;BME280;44459;43.522;24.470;2023-01-09T02:49:59;100546.09;;;0.22;100.00
57572;BME280;44459;43.522;24.470;2023-01-09T03:08:51;100541.28;;;-0.04;100.00
57572;BME280;44459;43.522;24.470;2023-01-09T03:11:19;100542.97;;;-0.05;100.00
57572;BME280;44459;43.522;24.470;2023-01-09T03:13:50;100545.06;;;-0.14;100.00
57572;BME280;44459;43.522;24.470;2023-01-09T03:16:24;100545.97;;;-0.13;100.00
57572;BME280;44459;43.522;24.470;2023-01-09T03:18:53;100550.34;;;-0.12;100.00
57572;BME280;44459;43.522;24.470;2023-01-09T03:21:20;100544.34;;;-0.11;100.00
57572;BME280;44459;43.522;24.470;2023-01-09T03:23:49;100539.88;;;-0.14;100.00
57572;BME280;44459;43.522;24.470;2023-01-09T03:26:15;100539.66;;;-0.18;100.00
57572;BME280;44459;43.522;24.470;2023-01-09T03:28:41;100543.03;;;-0.19;100.00
57572;BME280;44459;43.522;24.470;2023-01-09T03:31:07;100539.00;;;-0.14;100.00
57572;BME280;44459;43.522;24.470;2023-01-09T03:33:32;100532.09;;;-0.14;100.00
57572;BME280;44459;43.522;24.470;2023-01-09T03:35:58;100535.84;;;-0.09;100.00
57572;BME280;44459;43.522;24.470;2023-01-09T03:38:23;100531.59;;;-0.07;100.00
57572;BME280;44459;43.522;24.470;2023-01-09T03:40:49;100527.31;;;-0.06;100.00
57572;BME280;44459;43.522;24.470;2023-01-09T03:43:15;100534.38;;;-0.04;100.00
57572;BME280;44459;43.522;24.470;2023-01-09T03:45:41;100548.41;;;0.00;100.00
57572;BME280;44459;43.522;24.470;2023-01-09T03:48:07;100534.28;;;-0.05;100.00
57572;BME280;44459;43.522;24.470;2023-01-09T03:50:32;100533.25;;;-0.09;100.00
57572;BME280;44459;43.522;24.470;2023-01-09T03:52:58;100546.69;;;-0.16;100.00
57572;BME280;44459;43.522;24.470;2023-01-09T03:55:23;100551.78;;;-0.17;100.00
57572;BME280;44459;43.522;24.470;2023-01-09T03:57:49;100557.97;;;-0.15;100.00
57572;BME280;44459;43.522;24.470;2023-01-09T04:00:15;100545.06;;;-0.14;100.00
57572;BME280;44459;43.522;24.470;2023-01-09T04:02:40;100542.31;;;-0.17;100.00
57572;BME280;44459;43.522;24.470;2023-01-09T04:05:07;100538.50;;;-0.23;100.00
57572;BME280;44459;43.522;24.470;2023-01-09T04:07:32;100545.97;;;-0.29;100.00
57572;BME280;44459;43.522;24.470;2023-01-09T04:09:57;100553.47;;;-0.34;100.00
57572;BME280;44459;43.522;24.470;2023-01-09T04:12:23;100561.19;;;-0.35;100.00
57572;BME280;44459;43.522;24.470;2023-01-09T04:14:48;100570.34;;;-0.42;100.00
57572;BME280;44459;43.522;24.470;2023-01-09T04:17:14;100566.59;;;-0.47;100.00
57572;BME280;44459;43.522;24.470;2023-01-09T04:19:40;100568.28;;;-0.47;100.00
57572;BME280;44459;43.522;24.470;2023-01-09T04:22:06;100570.16;;;-0.45;100.00
57572;BME280;44459;43.522;24.470;2023-01-09T04:24:31;100567.22;;;-0.51;100.00
57572;BME280;44459;43.522;24.470;2023-01-09T04:26:57;100561.97;;;-0.53;100.00
57572;BME280;44459;43.522;24.470;2023-01-09T04:29:22;100550.72;;;-0.53;100.00
57572;BME280;44459;43.522;24.470;2023-01-09T04:31:47;100552.47;;;-0.52;100.00
57572;BME280;44459;43.522;24.470;2023-01-09T04:34:13;100550.78;;;-0.52;100.00
57572;BME280;44459;43.522;24.470;2023-01-09T04:36:38;100555.16;;;-0.51;100.00
57572;BME280;44459;43.522;24.470;2023-01-09T04:39:04;100564.00;;;-0.47;100.00
57572;BME280;44459;43.522;24.470;2023-01-09T04:41:30;100565.97;;;-0.43;100.00
57572;BME280;44459;43.522;24.470;2023-01-09T04:44:18;100561.84;;;-0.39;100.00
57572;BME280;44459;43.522;24.470;2023-01-09T04:46:43;100547.41;;;-0.34;100.00
57572;BME280;44459;43.522;24.470;2023-01-09T04:49:09;100555.44;;;-0.30;100.00
57572;BME280;44459;43.522;24.470;2023-01-09T04:51:34;100554.47;;;-0.32;100.00
57572;BME280;44459;43.522;24.470;2023-01-09T04:54:00;100545.81;;;-0.32;100.00
57572;BME280;44459;43.522;24.470;2023-01-09T04:56:26;100531.78;;;-0.36;100.00
57572;BME280;44459;43.522;24.470;2023-01-09T04:58:51;100529.50;;;-0.30;100.00
57572;BME280;44459;43.522;24.470;2023-01-09T05:01:17;100522.22;;;-0.37;100.00
57572;BME280;44459;43.522;24.470;2023-01-09T05:03:42;100514.38;;;-0.38;100.00
57572;BME280;44459;43.522;24.470;2023-01-09T05:06:08;100516.06;;;-0.39;100.00
57572;BME280;44459;43.522;24.470;2023-01-09T05:08:33;100511.84;;;-0.37;100.00
57572;BME280;44459;43.522;24.470;2023-01-09T05:10:58;100518.72;;;-0.37;100.00
57572;BME280;44459;43.522;24.470;2023-01-09T05:13:25;100517.00;;;-0.37;100.00
57572;BME280;44459;43.522;24.470;2023-01-09T05:15:50;100512.56;;;-0.39;100.00
57572;BME280;44459;43.522;24.470;2023-01-09T05:18:15;100509.88;;;-0.41;100.00
57572;BME280;44459;43.522;24.470;2023-01-09T05:20:41;100515.16;;;-0.39;100.00
57572;BME280;44459;43.522;24.470;2023-01-09T05:23:06;100508.81;;;-0.44;100.00
57572;BME280;44459;43.522;24.470;2023-01-09T05:25:32;100516.75;;;-0.41;100.00
57572;BME280;44459;43.522;24.470;2023-01-09T05:27:57;100513.78;;;-0.49;100.00
57572;BME280;44459;43.522;24.470;2023-01-09T05:30:24;100510.13;;;-0.53;100.00
57572;BME280;44459;43.522;24.470;2023-01-09T05:32:49;100512.00;;;-0.50;100.00
57572;BME280;44459;43.522;24.470;2023-01-09T05:35:14;100520.41;;;-0.54;100.00
57572;BME280;44459;43.522;24.470;2023-01-09T05:37:40;100523.41;;;-0.63;100.00
57572;BME280;44459;43.522;24.470;2023-01-09T05:40:06;100521.50;;;-0.65;100.00
57572;BME280;44459;43.522;24.470;2023-01-09T05:42:31;100534.47;;;-0.65;100.00
57572;BME280;44459;43.522;24.470;2023-01-09T05:44:56;100523.03;;;-0.69;100.00
57572;BME280;44459;43.522;24.470;2023-01-09T05:47:22;100525.75;;;-0.67;100.00
57572;BME280;44459;43.522;24.470;2023-01-09T05:49:47;100521.63;;;-0.64;100.00
57572;BME280;44459;43.522;24.470;2023-01-09T05:52:13;100520.56;;;-0.67;100.00
57572;BME280;44459;43.522;24.470;2023-01-09T05:54:39;100525.00;;;-0.95;100.00
57572;BME280;44459;43.522;24.470;2023-01-09T05:57:04;100521.63;;;-0.94;100.00
57572;BME280;44459;43.522;24.470;2023-01-09T05:59:29;100492.59;;;-1.04;100.00
57572;BME280;44459;43.522;24.470;2023-01-09T06:01:55;100518.00;;;-0.82;100.00
57572;BME280;44459;43.522;24.470;2023-01-09T06:04:20;100517.84;;;-0.85;100.00
57572;BME280;44459;43.522;24.470;2023-01-09T06:06:46;100508.75;;;-1.08;100.00
57572;BME280;44459;43.522;24.470;2023-01-09T06:09:11;100509.31;;;-1.13;100.00
57572;BME280;44459;43.522;24.470;2023-01-09T06:11:36;100511.13;;;-1.12;100.00
57572;BME280;44459;43.522;24.470;2023-01-09T06:14:06;100501.28;;;-1.18;100.00
57572;BME280;44459;43.522;24.470;2023-01-09T06:16:31;100501.38;;;-1.16;100.00
57572;BME280;44459;43.522;24.470;2023-01-09T06:18:57;100501.00;;;-1.08;100.00
57572;BME280;44459;43.522;24.470;2023-01-09T06:21:22;100492.44;;;-1.07;100.00
57572;BME280;44459;43.522;24.470;2023-01-09T06:23:48;100494.38;;;-1.03;100.00
57572;BME280;44459;43.522;24.470;2023-01-09T06:26:13;100494.72;;;-0.96;100.00
57572;BME280;44459;43.522;24.470;2023-01-09T06:28:39;100502.66;;;-0.93;100.00
57572;BME280;44459;43.522;24.470;2023-01-09T06:31:04;100493.47;;;-0.88;100.00
57572;BME280;44459;43.522;24.470;2023-01-09T06:33:30;100490.06;;;-0.87;100.00
57572;BME280;44459;43.522;24.470;2023-01-09T06:35:56;100493.63;;;-0.85;100.00
57572;BME280;44459;43.522;24.470;2023-01-09T06:38:21;100499.44;;;-0.89;100.00
57572;BME280;44459;43.522;24.470;2023-01-09T06:40:47;100488.53;;;-0.84;100.00
57572;BME280;44459;43.522;24.470;2023-01-09T06:43:12;100493.63;;;-0.85;100.00
57572;BME280;44459;43.522;24.470;2023-01-09T06:45:38;100505.84;;;-0.83;100.00
57572;BME280;44459;43.522;24.470;2023-01-09T06:48:03;100510.22;;;-0.82;100.00
57572;BME280;44459;43.522;24.470;2023-01-09T06:50:29;100505.84;;;-0.83;100.00
57572;BME280;44459;43.522;24.470;2023-01-09T06:52:54;100499.06;;;-0.81;100.00
57572;BME280;44459;43.522;24.470;2023-01-09T06:55:20;100493.56;;;-0.87;100.00
57572;BME280;44459;43.522;24.470;2023-01-09T06:57:45;100497.69;;;-0.90;100.00
57572;BME280;44459;43.522;24.470;2023-01-09T07:00:11;100485.19;;;-0.97;100.00
57572;BME280;44459;43.522;24.470;2023-01-09T07:02:36;100478.97;;;-1.16;100.00
57572;BME280;44459;43.522;24.470;2023-01-09T07:05:02;100473.72;;;-1.32;100.00
57572;BME280;44459;43.522;24.470;2023-01-09T07:07:31;100464.03;;;-1.36;100.00
57572;BME280;44459;43.522;24.470;2023-01-09T07:09:57;100467.69;;;-1.32;100.00
57572;BME280;44459;43.522;24.470;2023-01-09T07:12:22;100472.72;;;-1.19;100.00
57572;BME280;44459;43.522;24.470;2023-01-09T07:14:47;100460.59;;;-1.20;100.00
57572;BME280;44459;43.522;24.470;2023-01-09T07:17:13;100467.88;;;-1.13;100.00
57572;BME280;44459;43.522;24.470;2023-01-09T07:19:38;100470.97;;;-1.04;100.00
57572;BME280;44459;43.522;24.470;2023-01-09T07:22:04;100459.00;;;-1.33;100.00
57572;BME280;44459;43.522;24.470;2023-01-09T07:24:29;100472.72;;;-1.19;100.00
57572;BME280;44459;43.522;24.470;2023-01-09T07:26:55;100468.53;;;-1.32;100.00
57572;BME280;44459;43.522;24.470;2023-01-09T07:29:20;100474.53;;;-1.33;100.00
57572;BME280;44459;43.522;24.470;2023-01-09T07:31:46;100458.63;;;-1.24;100.00
57572;BME280;44459;43.522;24.470;2023-01-09T07:34:11;100451.31;;;-1.31;100.00
57572;BME280;44459;43.522;24.470;2023-01-09T07:36:37;100448.50;;;-1.36;100.00
57572;BME280;44459;43.522;24.470;2023-01-09T07:39:03;100438.94;;;-1.52;100.00
57572;BME280;44459;43.522;24.470;2023-01-09T07:41:28;100447.94;;;-1.45;100.00
57572;BME280;44459;43.522;24.470;2023-01-09T07:43:53;100451.88;;;-1.37;100.00
57572;BME280;44459;43.522;24.470;2023-01-09T07:46:20;100457.94;;;-1.22;100.00
57572;BME280;44459;43.522;24.470;2023-01-09T07:48:45;100455.34;;;-1.22;100.00
57572;BME280;44459;43.522;24.470;2023-01-09T07:51:11;100461.34;;;-1.37;100.00
57572;BME280;44459;43.522;24.470;2023-01-09T07:53:36;100454.63;;;-1.34;100.00
57572;BME280;44459;43.522;24.470;2023-01-09T07:56:02;100453.56;;;-1.37;100.00
57572;BME280;44459;43.522;24.470;2023-01-09T07:58:27;100446.53;;;-1.40;100.00
57572;BME280;44459;43.522;24.470;2023-01-09T08:00:53;100456.66;;;-1.28;100.00
57572;BME280;44459;43.522;24.470;2023-01-09T08:03:18;100461.16;;;-1.26;100.00
57572;BME280;44459;43.522;24.470;2023-01-09T08:05:45;100466.06;;;-1.30;100.00
57572;BME280;44459;43.522;24.470;2023-01-09T08:08:10;100467.28;;;-1.24;100.00
57572;BME280;44459;43.522;24.470;2023-01-09T08:10:36;100467.00;;;-1.14;100.00
57572;BME280;44459;43.522;24.470;2023-01-09T08:13:01;100475.78;;;-0.95;100.00
57572;BME280;44459;43.522;24.470;2023-01-09T08:15:27;100469.03;;;-0.77;100.00
57572;BME280;44459;43.522;24.470;2023-01-09T08:17:52;100478.91;;;-0.70;100.00
57572;BME280;44459;43.522;24.470;2023-01-09T08:20:18;100478.75;;;-0.73;100.00
57572;BME280;44459;43.522;24.470;2023-01-09T08:22:45;100484.16;;;-0.69;100.00
57572;BME280;44459;43.522;24.470;2023-01-09T08:25:14;100468.63;;;-0.69;100.00
57572;BME280;44459;43.522;24.470;2023-01-09T08:27:40;100468.41;;;-0.57;100.00
57572;BME280;44459;43.522;24.470;2023-01-09T08:30:06;100468.22;;;-0.44;100.00
57572;BME280;44459;43.522;24.470;2023-01-09T08:32:33;100456.97;;;-0.61;100.00
57572;BME280;44459;43.522;24.470;2023-01-09T08:34:59;100464.81;;;-0.75;100.00
57572;BME280;44459;43.522;24.470;2023-01-09T08:37:24;100462.53;;;-0.69;100.00
57572;BME280;44459;43.522;24.470;2023-01-09T08:39:50;100462.53;;;-0.69;100.00
57572;BME280;44459;43.522;24.470;2023-01-09T08:42:15;100456.28;;;-0.73;100.00
57572;BME280;44459;43.522;24.470;2023-01-09T08:44:58;100469.84;;;-0.62;100.00
57572;BME280;44459;43.522;24.470;2023-01-09T08:47:42;100466.28;;;-0.64;100.00
57572;BME280;44459;43.522;24.470;2023-01-09T08:50:08;100474.63;;;-0.54;100.00
57572;BME280;44459;43.522;24.470;2023-01-09T08:52:34;100473.25;;;-0.47;100.00
57572;BME280;44459;43.522;24.470;2023-01-09T08:54:59;100465.38;;;-0.65;100.00
57572;BME280;44459;43.522;24.470;2023-01-09T08:57:24;100460.88;;;-0.53;100.00
57572;BME280;44459;43.522;24.470;2023-01-09T08:59:50;100465.56;;;-0.45;100.00
57572;BME280;44459;43.522;24.470;2023-01-09T09:02:15;100475.63;;;-0.35;100.00
57572;BME280;44459;43.522;24.470;2023-01-09T09:04:41;100465.16;;;-0.53;100.00
57572;BME280;44459;43.522;24.470;2023-01-09T09:07:06;100468.81;;;-0.33;100.00
57572;BME280;44459;43.522;24.470;2023-01-09T09:09:32;100463.84;;;-0.13;100.00
57572;BME280;44459;43.522;24.470;2023-01-09T09:11:57;100462.38;;;-0.24;100.00
57572;BME280;44459;43.522;24.470;2023-01-09T09:14:23;100452.00;;;-0.24;100.00
57572;BME280;44459;43.522;24.470;2023-01-09T09:17:06;100449.31;;;-0.09;100.00
57572;BME280;44459;43.522;24.470;2023-01-09T09:19:32;100446.69;;;-0.11;100.00
57572;BME280;44459;43.522;24.470;2023-01-09T09:21:57;100444.69;;;0.02;100.00
57572;BME280;44459;43.522;24.470;2023-01-09T09:24:23;100436.00;;;0.01;100.00
57572;BME280;44459;43.522;24.470;2023-01-09T09:26:48;100443.34;;;-0.08;100.00
57572;BME280;44459;43.522;24.470;2023-01-09T09:29:14;100446.47;;;0.03;100.00
57572;BME280;44459;43.522;24.470;2023-01-09T09:31:39;100435.91;;;0.16;100.00
57572;BME280;44459;43.522;24.470;2023-01-09T09:34:05;100431.47;;;0.13;100.00
57572;BME280;44459;43.522;24.470;2023-01-09T09:36:31;100428.50;;;0.23;100.00
57572;BME280;44459;43.522;24.470;2023-01-09T09:38:56;100423.00;;;0.35;100.00
57572;BME280;44459;43.522;24.470;2023-01-09T09:54:57;100394.44;;;0.35;100.00
57572;BME280;44459;43.522;24.470;2023-01-09T09:57:32;100398.09;;;0.38;100.00
57572;BME280;44459;43.522;24.470;2023-01-09T09:59:58;100391.94;;;0.54;100.00
57572;BME280;44459;43.522;24.470;2023-01-09T10:02:27;100402.19;;;0.51;100.00
57572;BME280;44459;43.522;24.470;2023-01-09T10:04:58;100391.03;;;0.36;100.00
57572;BME280;44459;43.522;24.470;2023-01-09T10:07:30;100383.72;;;0.45;100.00
57572;BME280;44459;43.522;24.470;2023-01-09T10:10:02;100375.56;;;0.55;100.00
57572;BME280;44459;43.522;24.470;2023-01-09T10:12:33;100371.44;;;0.60;100.00
57572;BME280;44459;43.522;24.470;2023-01-09T10:15:13;100361.31;;;0.84;100.00
57572;BME280;44459;43.522;24.470;2023-01-09T10:26:04;100336.03;;;1.37;100.00
57572;BME280;44459;43.522;24.470;2023-01-09T10:33:53;100319.59;;;1.18;100.00
57572;BME280;44459;43.522;24.470;2023-01-09T10:39:04;100310.25;;;1.23;100.00
57572;BME280;44459;43.522;24.470;2023-01-09T10:41:38;100302.16;;;1.36;100.00
57572;BME280;44459;43.522;24.470;2023-01-09T10:44:32;100297.50;;;1.29;100.00
57572;BME280;44459;43.522;24.470;2023-01-09T10:47:07;100291.06;;;1.40;100.00
57572;BME280;44459;43.522;24.470;2023-01-09T10:49:36;100282.06;;;1.32;100.00
57572;BME280;44459;43.522;24.470;2023-01-09T10:54:29;100274.72;;;1.42;100.00
57572;BME280;44459;43.522;24.470;2023-01-09T10:59:22;100259.50;;;1.51;100.00
57572;BME280;44459;43.522;24.470;2023-01-09T11:01:47;100256.59;;;1.44;100.00
57572;BME280;44459;43.522;24.470;2023-01-09T11:04:25;100245.50;;;1.48;100.00
57572;BME280;44459;43.522;24.470;2023-01-09T11:06:59;100242.94;;;1.49;100.00
57572;BME280;44459;43.522;24.470;2023-01-09T11:09:26;100236.44;;;1.59;100.00
57572;BME280;44459;43.522;24.470;2023-01-09T11:11:52;100235.91;;;1.68;100.00
57572;BME280;44459;43.522;24.470;2023-01-09T11:14:25;100241.50;;;1.77;100.00
57572;BME280;44459;43.522;24.470;2023-01-09T11:16:59;100240.97;;;1.85;100.00
57572;BME280;44459;43.522;24.470;2023-01-09T11:19:26;100232.84;;;1.78;100.00
57572;BME280;44459;43.522;24.470;2023-01-09T11:22:14;100240.59;;;1.76;100.00
57572;BME280;44459;43.522;24.470;2023-01-09T11:24:40;100236.34;;;1.78;100.00
57572;BME280;44459;43.522;24.470;2023-01-09T11:29:38;100224.78;;;1.92;100.00
57572;BME280;44459;43.522;24.470;2023-01-09T11:32:04;100215.88;;;2.08;100.00
57572;BME280;44459;43.522;24.470;2023-01-09T11:34:32;100222.69;;;2.05;100.00
57572;BME280;44459;43.522;24.470;2023-01-09T11:37:05;100221.50;;;1.98;100.00
57572;BME280;44459;43.522;24.470;2023-01-09T11:39:33;100212.78;;;1.96;100.00
57572;BME280;44459;43.522;24.470;2023-01-09T11:42:04;100202.66;;;2.03;100.00
57572;BME280;44459;43.522;24.470;2023-01-09T11:44:31;100190.53;;;2.04;100.00
57572;BME280;44459;43.522;24.470;2023-01-09T11:46:57;100191.84;;;1.93;100.00
57572;BME280;44459;43.522;24.470;2023-01-09T11:49:25;100186.50;;;1.90;100.00
57572;BME280;44459;43.522;24.470;2023-01-09T11:52:14;100202.13;;;1.90;100.00
57572;BME280;44459;43.522;24.470;2023-01-09T11:54:58;100203.97;;;1.92;100.00
57572;BME280;44459;43.522;24.470;2023-01-09T11:57:27;100188.53;;;1.97;100.00
57572;BME280;44459;43.522;24.470;2023-01-09T11:59:56;100183.25;;;1.95;100.00
57572;BME280;44459;43.522;24.470;2023-01-09T12:02:43;100180.13;;;2.04;100.00
57572;BME280;44459;43.522;24.470;2023-01-09T12:16:37;100135.47;;;1.93;100.00
57572;BME280;44459;43.522;24.470;2023-01-09T12:29:50;100114.56;;;1.92;100.00
57572;BME280;44459;43.522;24.470;2023-01-09T12:35:16;100134.88;;;2.00;100.00
57572;BME280;44459;43.522;24.470;2023-01-09T12:41:08;100121.59;;;1.94;100.00
57572;BME280;44459;43.522;24.470;2023-01-09T12:46:17;100096.25;;;1.89;100.00
57572;BME280;44459;43.522;24.470;2023-01-09T12:56:51;100109.59;;;1.98;100.00
57572;BME280;44459;43.522;24.470;2023-01-09T13:04:39;100103.28;;;1.91;100.00
57572;BME280;44459;43.522;24.470;2023-01-09T13:07:39;100101.69;;;1.95;100.00
57572;BME280;44459;43.522;24.470;2023-01-09T13:12:35;100100.22;;;1.79;100.00
57572;BME280;44459;43.522;24.470;2023-01-09T13:15:18;100100.16;;;1.78;100.00
57572;BME280;44459;43.522;24.470;2023-01-09T13:17:51;100096.66;;;1.77;100.00
57572;BME280;44459;43.522;24.470;2023-01-09T13:20:33;100095.91;;;1.80;100.00
57572;BME280;44459;43.522;24.470;2023-01-09T13:23:01;100100.34;;;1.82;100.00
57572;BME280;44459;43.522;24.470;2023-01-09T13:28:03;100079.63;;;1.85;100.00
57572;BME280;44459;43.522;24.470;2023-01-09T13:30:50;100100.44;;;1.85;100.00
57572;BME280;44459;43.522;24.470;2023-01-09T13:33:27;100096.03;;;1.83;100.00
57572;BME280;44459;43.522;24.470;2023-01-09T13:35:55;100099.56;;;1.85;100.00
57572;BME280;44459;43.522;24.470;2023-01-09T13:38:24;100089.63;;;1.75;100.00
57572;BME280;44459;43.522;24.470;2023-01-09T13:41:10;100094.13;;;1.79;100.00
57572;BME280;44459;43.522;24.470;2023-01-09T13:44:00;100087.84;;;1.74;100.00
57572;BME280;44459;43.522;24.470;2023-01-09T13:46:38;100082.59;;;1.72;100.00
57572;BME280;44459;43.522;24.470;2023-01-09T13:49:26;100092.13;;;1.72;100.00
57572;BME280;44459;43.522;24.470;2023-01-09T13:51:59;100086.59;;;1.64;100.00
57572;BME280;44459;43.522;24.470;2023-01-09T13:57:41;100065.88;;;1.66;100.00
57572;BME280;44459;43.522;24.470;2023-01-09T14:05:09;100078.75;;;1.63;100.00
57572;BME280;44459;43.522;24.470;2023-01-09T14:07:38;100069.84;;;1.56;100.00
57572;BME280;44459;43.522;24.470;2023-01-09T14:10:20;100054.22;;;1.56;100.00
57572;BME280;44459;43.522;24.470;2023-01-09T14:12:46;100062.19;;;1.61;100.00
57572;BME280;44459;43.522;24.470;2023-01-09T14:16:00;100064.09;;;1.65;100.00
57572;BME280;44459;43.522;24.470;2023-01-09T14:18:18;100068.16;;;1.58;100.00
57572;BME280;44459;43.522;24.470;2023-01-09T14:21:25;100052.69;;;1.61;100.00
57572;BME280;44459;43.522;24.470;2023-01-09T14:26:46;100059.00;;;1.68;100.00
57572;BME280;44459;43.522;24.470;2023-01-09T14:37:14;100044.38;;;1.71;100.00
57572;BME280;44459;43.522;24.470;2023-01-09T14:39:43;100046.22;;;1.74;100.00
57572;BME280;44459;43.522;24.470;2023-01-09T14:42:11;100045.75;;;1.84;100.00
57572;BME280;44459;43.522;24.470;2023-01-09T14:50:05;100030.00;;;1.81;100.00
57572;BME280;44459;43.522;24.470;2023-01-09T14:55:03;100031.19;;;1.67;100.00
57572;BME280;44459;43.522;24.470;2023-01-09T14:57:36;100029.25;;;1.61;100.00
57572;BME280;44459;43.522;24.470;2023-01-09T15:02:37;100003.84;;;1.54;100.00
57572;BME280;44459;43.522;24.470;2023-01-09T15:05:08;100003.84;;;1.54;100.00
57572;BME280;44459;43.522;24.470;2023-01-09T15:07:41;100006.53;;;1.56;100.00
57572;BME280;44459;43.522;24.470;2023-01-09T15:10:20;99999.47;;;1.53;100.00
57572;BME280;44459;43.522;24.470;2023-01-09T15:12:50;99993.34;;;1.51;100.00